Time;durP1;ratioP1;P1;durP2;ratioP2;P2;SDS_P1;SDS_P2;PMS_P1;PMS_P2;Temp;Humidity;BMP_temperature;BMP_pressure;BME280_temperature;BME280_humidity;BME280_pressure;Samples;Min_cycle;Max_cycle;Signal;HPM_P1;HPM_P2
2022/09/16 00:00:15;;;;;;;2.53;1.33;;;;;;;;;;5046672;28;20236;-44
2022/09/16 00:02:44;;;;;;;5.17;1.03;;;;;;;;;;5055313;28;20853;-42
2022/09/16 00:05:13;;;;;;;8.40;1.23;;;;;;;;;;5063324;28;20218;-42
2022/09/16 00:07:42;;;;;;;6.57;1.20;;;;;;;;;;5028071;28;20329;-42
2022/09/16 00:10:09;;;;;;;4.10;1.13;;;;;;;;;;5046103;28;20197;-43
2022/09/16 00:12:37;;;;;;;3.23;1.10;;;;;;;;;;5053686;28;20608;-42
2022/09/16 00:15:05;;;;;;;2.73;0.73;;;;;;;;;;5061952;28;20217;-42
2022/09/16 00:17:33;;;;;;;6.47;1.57;;;;;;;;;;5031757;28;20214;-42
2022/09/16 00:20:01;;;;;;;5.73;1.37;;;;;;;;;;5054502;28;20221;-42
2022/09/16 00:22:28;;;;;;;3.33;1.00;;;;;;;;;;5030871;28;20211;-44
2022/09/16 00:24:57;;;;;;;5.23;1.10;;;;;;;;;;5044235;28;20207;-47
2022/09/16 00:27:24;;;;;;;3.43;1.20;;;;;;;;;;5048405;28;20203;-43
2022/09/16 00:29:51;;;;;;;2.73;1.17;;;;;;;;;;5059490;28;20209;-45
2022/09/16 00:32:18;;;;;;;4.53;1.10;;;;;;;;;;5062664;28;20683;-43
2022/09/16 00:34:45;;;;;;;2.50;1.00;;;;;;;;;;5054451;28;21012;-44
2022/09/16 00:37:13;;;;;;;4.97;1.10;;;;;;;;;;5035780;28;20207;-43
2022/09/16 00:39:40;;;;;;;3.80;1.10;;;;;;;;;;5041260;28;20203;-42
2022/09/16 00:42:10;;;;;;;6.60;1.30;;;;;;;;;;5044412;28;20189;-43
2022/09/16 00:44:55;;;;;;;2.80;0.90;;;;;;;;;;5050175;28;20929;-46
2022/09/16 00:47:24;;;;;;;5.17;1.37;;;;;;;;;;5044489;28;20210;-48
2022/09/16 00:49:55;;;;;;;5.07;1.53;;;;;;;;;;5040241;28;20206;-42
2022/09/16 00:52:23;;;;;;;6.43;1.53;;;;;;;;;;5041735;28;20211;-45
2022/09/16 00:54:50;;;;;;;5.93;1.17;;;;;;;;;;5041416;28;20945;-44
2022/09/16 00:57:19;;;;;;;2.63;0.90;;;;;;;;;;5050448;28;20203;-43
2022/09/16 00:59:49;;;;;;;2.97;0.90;;;;;;;;;;5052890;28;20209;-43
2022/09/16 01:02:19;;;;;;;5.80;1.00;;;;;;;;;;5044930;28;20198;-43
2022/09/16 01:04:50;;;;;;;2.30;1.00;;;;;;;;;;5043067;28;22202;-42
2022/09/16 01:07:18;;;;;;;2.50;0.70;;;;;;;;;;5063856;28;20671;-43
2022/09/16 01:09:45;;;;;;;2.47;0.70;;;;;;;;;;5029916;28;20198;-42
2022/09/16 01:12:13;;;;;;;0.60;0.60;;;;;;;;;;5048229;28;20211;-43
2022/09/16 01:14:53;;;;;;;2.80;0.70;;;;;;;;;;5049563;28;20219;-42
2022/09/16 01:17:24;;;;;;;2.70;0.70;;;;;;;;;;5034104;28;20207;-42
2022/09/16 01:20:00;;;;;;;4.77;1.17;;;;;;;;;;5042720;28;20282;-43
2022/09/16 01:22:37;;;;;;;3.07;0.83;;;;;;;;;;5053778;28;20209;-43
2022/09/16 01:25:11;;;;;;;2.77;1.20;;;;;;;;;;5031704;28;20262;-43
2022/09/16 01:27:45;;;;;;;4.43;1.00;;;;;;;;;;5042223;28;20198;-42
2022/09/16 01:30:18;;;;;;;6.13;0.90;;;;;;;;;;5051813;28;20205;-44
2022/09/16 01:32:54;;;;;;;2.23;0.97;;;;;;;;;;5023632;28;20226;-43
2022/09/16 01:35:23;;;;;;;2.40;1.30;;;;;;;;;;5047652;28;20222;-42
2022/09/16 01:37:57;;;;;;;3.77;1.30;;;;;;;;;;5062017;28;20663;-42
2022/09/16 01:40:27;;;;;;;3.43;0.80;;;;;;;;;;5027806;28;20962;-42
2022/09/16 01:42:58;;;;;;;2.77;1.37;;;;;;;;;;5051859;28;20198;-43
2022/09/16 01:45:29;;;;;;;2.57;0.63;;;;;;;;;;5058154;28;20217;-44
2022/09/16 01:48:02;;;;;;;1.97;1.00;;;;;;;;;;5059114;28;20214;-43
2022/09/16 01:50:32;;;;;;;2.17;1.10;;;;;;;;;;5044757;28;21389;-42
2022/09/16 01:53:03;;;;;;;2.50;1.50;;;;;;;;;;5069831;28;20217;-42
2022/09/16 01:55:33;;;;;;;6.13;1.10;;;;;;;;;;5036603;28;20223;-43
2022/09/16 01:58:02;;;;;;;3.37;1.20;;;;;;;;;;5051147;28;20190;-43
2022/09/16 02:00:30;;;;;;;4.90;1.77;;;;;;;;;;5044906;28;20210;-43
2022/09/16 02:03:01;;;;;;;2.27;1.00;;;;;;;;;;5069700;28;20550;-43
2022/09/16 02:05:31;;;;;;;2.93;1.03;;;;;;;;;;5064830;28;20217;-42
2022/09/16 02:08:01;;;;;;;2.53;1.40;;;;;;;;;;5064691;28;20213;-42
2022/09/16 02:10:31;;;;;;;1.93;1.10;;;;;;;;;;5037341;28;20211;-42
2022/09/16 02:12:59;;;;;;;4.73;1.30;;;;;;;;;;5049544;28;20298;-43
2022/09/16 02:15:27;;;;;;;3.77;1.37;;;;;;;;;;5056333;28;20198;-42
2022/09/16 02:17:57;;;;;;;5.30;1.40;;;;;;;;;;5051829;28;20209;-45
2022/09/16 02:20:28;;;;;;;7.00;1.70;;;;;;;;;;5045461;28;20848;-44
2022/09/16 02:23:01;;;;;;;6.67;1.40;;;11.00;99.90;;;;;;5051487;28;20222;-42
2022/09/16 02:25:32;;;;;;;7.13;1.50;;;10.90;99.90;;;;;;5048904;28;20302;-42
2022/09/16 02:28:02;;;;;;;3.87;2.17;;;11.00;99.90;;;;;;5052153;28;20198;-43
2022/09/16 02:30:31;;;;;;;4.93;1.73;;;10.90;99.90;;;;;;5032295;28;20190;-43
2022/09/16 02:33:04;;;;;;;7.20;2.00;;;10.90;99.90;;;;;;5064482;28;20276;-43
2022/09/16 02:35:35;;;;;;;3.67;2.03;;;10.90;99.90;;;;;;5027376;28;20215;-43
2022/09/16 02:38:08;;;;;;;6.00;1.67;;;10.90;99.90;;;;;;5061044;28;20194;-43
2022/09/16 02:40:50;;;;;;;2.50;1.40;;;10.90;99.90;;;;;;5050356;28;21055;-44
2022/09/16 02:43:17;;;;;;;3.43;1.67;;;10.90;99.90;;;;;;5044896;28;20187;-44
2022/09/16 02:45:50;;;;;;;3.60;2.03;;;10.90;99.90;;;;;;5050786;28;20310;-44
2022/09/16 02:48:28;;;;;;;4.70;1.90;;;10.90;99.90;;;;;;5042576;28;20207;-42
2022/09/16 02:51:04;;;;;;;4.97;1.83;;;10.80;99.90;;;;;;5042202;28;20305;-43
2022/09/16 02:53:42;;;;;;;7.60;1.73;;;10.80;99.90;;;;;;5056124;28;20296;-45
2022/09/16 02:56:17;;;;;;;6.23;1.30;;;10.80;99.90;;;;;;5049738;28;20274;-43
2022/09/16 02:58:44;;;;;;;4.07;1.20;;;10.80;99.90;;;;;;5052956;28;20198;-43
2022/09/16 03:01:13;;;;;;;7.13;1.77;;;10.80;99.90;;;;;;5056181;28;20191;-44
2022/09/16 03:03:40;;;;;;;6.07;2.23;;;10.80;99.90;;;;;;5057167;28;20571;-43
2022/09/16 03:06:16;;;;;;;4.13;1.27;;;10.70;99.90;;;;;;5064691;28;20217;-45
2022/09/16 03:08:44;;;;;;;5.57;1.40;;;10.80;99.90;;;;;;5058692;28;20686;-42
2022/09/16 03:11:22;;;;;;;8.63;1.60;;;10.80;99.90;;;;;;5063899;28;20194;-47
2022/09/16 03:13:57;;;;;;;4.20;1.30;;;10.80;99.90;;;;;;5037171;28;20206;-45
2022/09/16 03:16:31;;;;;;;4.37;1.63;;;10.80;99.90;;;;;;5043077;28;20859;-45
2022/09/16 03:19:09;;;;;;;10.27;2.70;;;10.80;99.90;;;;;;5046569;28;20214;-45
2022/09/16 03:21:47;;;;;;;9.60;2.80;;;10.80;99.90;;;;;;5060847;28;20303;-43
2022/09/16 03:24:21;;;;;;;6.43;2.20;;;10.80;99.90;;;;;;5055764;28;20289;-43
2022/09/16 03:26:58;;;;;;;5.40;2.10;;;10.80;99.90;;;;;;5037120;28;20679;-45
2022/09/16 03:29:30;;;;;;;5.30;1.80;;;10.70;99.90;;;;;;5030643;28;20206;-43
2022/09/16 03:32:03;;;;;;;4.33;1.33;;;10.80;99.90;;;;;;5045003;28;20203;-45
2022/09/16 03:34:35;;;;;;;9.60;2.17;;;10.70;99.90;;;;;;5041028;28;20946;-43
2022/09/16 03:37:07;;;;;;;8.30;2.17;;;10.70;99.90;;;;;;5055838;28;20203;-46
2022/09/16 03:39:36;;;;;;;7.97;1.77;;;10.70;99.90;;;;;;5049887;28;20856;-43
2022/09/16 03:42:06;;;;;;;7.47;2.07;;;10.70;99.90;;;;;;5055986;28;20252;-44
2022/09/16 03:44:35;;;;;;;5.77;2.27;;;10.60;99.90;;;;;;5035806;28;20223;-42
2022/09/16 03:47:03;;;;;;;4.97;1.60;;;10.60;99.90;;;;;;5050889;28;20196;-45
2022/09/16 03:49:30;;;;;;;4.40;1.03;;;10.60;99.90;;;;;;5042860;28;20196;-43
2022/09/16 03:51:57;;;;;;;6.73;1.63;;;10.60;99.90;;;;;;5055453;28;20218;-42
2022/09/16 03:54:26;;;;;;;6.67;1.93;;;10.60;99.90;;;;;;5058837;28;20336;-42
2022/09/16 03:56:53;;;;;;;3.17;1.77;;;10.60;99.90;;;;;;5059884;28;20210;-45
2022/09/16 03:59:20;;;;;;;3.83;1.70;;;10.60;99.90;;;;;;5037111;28;20246;-43
2022/09/16 04:01:48;;;;;;;10.20;1.40;;;10.60;99.90;;;;;;5041271;28;20683;-44
2022/09/16 04:04:15;;;;;;;1.57;1.00;;;10.60;99.90;;;;;;5048142;28;20207;-43
2022/09/16 04:06:42;;;;;;;15.80;3.07;;;10.60;99.90;;;;;;5050841;28;20206;-43
2022/09/16 04:09:11;;;;;;;9.13;2.03;;;10.60;99.90;;;;;;5054835;28;20199;-45
2022/09/16 04:11:40;;;;;;;12.60;2.93;;;10.60;99.90;;;;;;5035670;28;20205;-47
2022/09/16 04:14:07;;;;;;;5.40;1.60;;;10.60;99.90;;;;;;5053760;28;20630;-42
2022/09/16 04:16:34;;;;;;;6.00;1.70;;;10.60;99.90;;;;;;5029175;28;20554;-45
2022/09/16 04:19:01;;;;;;;4.80;1.00;;;10.60;99.90;;;;;;5049190;28;20671;-45
2022/09/16 04:21:28;;;;;;;5.77;1.70;;;10.60;99.90;;;;;;5050239;28;20207;-43
2022/09/16 04:23:55;;;;;;;1.80;1.00;;;10.60;99.90;;;;;;5041440;28;20210;-45
2022/09/16 04:26:22;;;;;;;5.33;1.20;;;10.50;99.90;;;;;;5043883;28;20210;-43
2022/09/16 04:28:52;;;;;;;6.37;1.67;;;10.60;99.90;;;;;;5043541;28;20199;-43
2022/09/16 04:31:19;;;;;;;3.40;1.47;;;10.60;99.90;;;;;;5034943;28;20229;-43
2022/09/16 04:33:45;;;;;;;3.20;1.10;;;10.50;99.90;;;;;;5039126;28;20280;-46
2022/09/16 04:36:14;;;;;;;3.00;1.03;;;10.40;99.90;;;;;;5045479;28;20679;-43
2022/09/16 04:38:43;;;;;;;4.50;1.20;;;10.40;99.90;;;;;;5041737;28;20835;-43
2022/09/16 04:41:15;;;;;;;4.40;1.30;;;;;;;;;;5025520;28;20680;-42
2022/09/16 04:43:42;;;;;;;4.33;1.27;;;10.40;99.90;;;;;;5040357;28;20271;-42
2022/09/16 04:46:10;;;;;;;4.10;1.30;;;10.40;99.90;;;;;;5032751;28;20272;-44
2022/09/16 04:48:37;;;;;;;5.67;1.33;;;10.20;99.90;;;;;;5040851;28;20223;-43
2022/09/16 04:51:07;;;;;;;6.60;1.60;;;10.30;99.90;;;;;;5041385;28;20195;-43
2022/09/16 04:53:34;;;;;;;5.63;1.33;;;10.40;99.90;;;;;;5039800;28;20211;-46
2022/09/16 04:56:06;;;;;;;3.43;1.60;;;10.30;99.90;;;;;;5043592;28;20292;-43
2022/09/16 04:58:34;;;;;;;4.37;1.43;;;10.30;99.90;;;;;;5044802;28;20206;-45
2022/09/16 05:01:05;;;;;;;4.00;1.33;;;10.50;99.90;;;;;;5044505;28;20211;-45
2022/09/16 05:03:33;;;;;;;4.83;2.20;;;10.40;99.90;;;;;;5036747;28;20310;-45
2022/09/16 05:06:08;;;;;;;7.53;1.70;;;10.20;99.90;;;;;;5041969;28;20207;-43
2022/09/16 05:08:35;;;;;;;4.40;1.57;;;10.70;99.90;;;;;;5052931;28;20202;-43
2022/09/16 05:11:08;;;;;;;9.10;1.50;;;10.50;99.90;;;;;;5049032;28;20243;-43
2022/09/16 05:13:35;;;;;;;3.37;1.60;;;10.10;99.90;;;;;;5039651;28;20218;-43
2022/09/16 05:16:04;;;;;;;4.00;1.20;;;10.60;99.90;;;;;;5042828;28;20286;-43
2022/09/16 05:18:30;;;;;;;4.53;1.10;;;10.40;99.90;;;;;;5028825;28;20211;-43
2022/09/16 05:20:59;;;;;;;2.77;1.10;;;10.70;99.90;;;;;;5033690;28;20214;-42
2022/09/16 05:23:26;;;;;;;4.77;1.30;;;10.30;99.90;;;;;;5037247;28;20203;-46
2022/09/16 05:25:54;;;;;;;2.50;0.87;;;10.40;99.90;;;;;;5037711;28;20227;-43
2022/09/16 05:28:21;;;;;;;8.47;1.67;;;10.40;99.90;;;;;;5050286;28;20198;-43
2022/09/16 05:30:48;;;;;;;5.97;1.60;;;10.70;99.90;;;;;;5039755;28;20238;-44
2022/09/16 05:33:15;;;;;;;9.00;2.37;;;10.40;99.90;;;;;;5027336;28;20281;-44
2022/09/16 05:35:44;;;;;;;4.77;1.83;;;10.50;99.90;;;;;;5042186;28;20238;-43
2022/09/16 05:38:13;;;;;;;10.93;2.60;;;10.50;99.90;;;;;;5044302;28;20183;-43
2022/09/16 05:40:40;;;;;;;7.60;1.83;;;10.30;99.90;;;;;;5041416;28;20206;-44
2022/09/16 05:43:07;;;;;;;11.87;2.93;;;10.30;99.90;;;;;;5038312;28;20278;-43
2022/09/16 05:45:34;;;;;;;7.30;2.07;;;10.40;99.90;;;;;;5042130;28;20698;-43
2022/09/16 05:48:01;;;;;;;6.70;1.60;;;10.40;99.90;;;;;;5028964;28;20985;-44
2022/09/16 05:50:28;;;;;;;6.30;1.70;;;10.40;99.90;;;;;;5041630;28;20563;-48
2022/09/16 05:52:55;;;;;;;2.17;1.17;;;10.60;99.90;;;;;;5040243;28;20203;-43
2022/09/16 05:55:25;;;;;;;3.40;1.10;;;10.50;99.90;;;;;;5043809;28;20707;-46
2022/09/16 05:57:51;;;;;;;5.03;1.53;;;10.30;99.90;;;;;;5053962;28;20275;-47
2022/09/16 06:00:18;;;;;;;3.43;1.23;;;10.60;99.90;;;;;;5042773;28;20327;-43
2022/09/16 06:02:44;;;;;;;7.03;1.73;;;10.50;99.90;;;;;;5025392;28;20254;-44
2022/09/16 06:05:13;;;;;;;6.53;1.80;;;11.00;99.90;;;;;;5036949;28;20215;-49
2022/09/16 06:07:39;;;;;;;6.23;2.10;;;10.60;99.90;;;;;;5039338;28;20283;-45
2022/09/16 06:10:07;;;;;;;4.67;1.60;;;10.80;99.90;;;;;;5042520;28;20285;-45
2022/09/16 06:12:36;;;;;;;4.20;1.30;;;10.70;99.90;;;;;;5043187;28;20702;-45
2022/09/16 06:15:02;;;;;;;4.60;1.33;;;10.80;99.90;;;;;;5044808;28;20222;-43
2022/09/16 06:17:29;;;;;;;4.70;2.23;;;10.90;99.90;;;;;;5036576;28;20659;-42
2022/09/16 06:19:56;;;;;;;8.50;2.20;;;11.00;99.90;;;;;;5034734;28;20191;-44
2022/09/16 06:22:23;;;;;;;8.67;1.70;;;10.80;99.90;;;;;;5041598;28;20620;-42
2022/09/16 06:24:51;;;;;;;4.70;1.40;;;10.60;99.90;;;;;;5037638;28;20211;-44
2022/09/16 06:27:18;;;;;;;6.77;1.53;;;10.80;99.90;;;;;;5052169;28;20813;-46
2022/09/16 06:29:46;;;;;;;8.20;2.20;;;10.70;99.90;;;;;;5036864;28;23141;-44
2022/09/16 06:32:14;;;;;;;9.53;2.30;;;10.90;99.90;;;;;;5045877;28;20202;-46
2022/09/16 06:34:40;;;;;;;6.90;1.67;;;10.90;99.90;;;;;;5030352;28;20242;-43
2022/09/16 06:37:11;;;;;;;3.57;1.30;;;10.90;99.90;;;;;;5047933;28;20198;-44
2022/09/16 06:39:38;;;;;;;6.47;1.40;;;11.00;99.90;;;;;;5035377;28;20195;-45
2022/09/16 06:42:07;;;;;;;9.73;2.47;;;11.00;99.90;;;;;;5044898;28;20591;-43
2022/09/16 06:44:40;;;;;;;4.13;1.03;;;11.00;99.90;;;;;;5035744;28;20293;-45
2022/09/16 06:47:08;;;;;;;3.70;1.03;;;11.10;99.90;;;;;;5046173;28;20203;-44
2022/09/16 06:49:34;;;;;;;4.90;1.20;;;11.30;99.90;;;;;;5040072;28;20206;-44
2022/09/16 06:52:02;;;;;;;4.13;1.50;;;11.40;99.90;;;;;;5045782;28;20223;-43
2022/09/16 06:54:29;;;;;;;3.70;1.00;;;11.30;99.90;;;;;;5045181;28;20307;-44
2022/09/16 06:56:56;;;;;;;5.57;1.13;;;11.30;99.90;;;;;;5040435;28;20257;-46
2022/09/16 06:59:23;;;;;;;3.13;1.13;;;11.40;99.90;;;;;;5047757;28;20221;-43
2022/09/16 07:01:51;;;;;;;3.33;0.93;;;11.50;99.90;;;;;;5036934;28;20192;-43
2022/09/16 07:04:19;;;;;;;2.60;0.93;;;11.50;99.90;;;;;;5049435;28;20214;-43
2022/09/16 07:06:45;;;;;;;3.80;1.13;;;11.60;99.90;;;;;;5030747;28;20199;-45
2022/09/16 07:09:13;;;;;;;5.43;0.83;;;11.60;99.90;;;;;;5056171;28;20244;-43
2022/09/16 07:11:40;;;;;;;6.30;1.53;;;11.70;99.90;;;;;;5043281;28;20199;-43
2022/09/16 07:14:08;;;;;;;4.23;0.90;;;11.70;99.90;;;;;;5025181;28;20222;-44
2022/09/16 07:16:34;;;;;;;6.80;1.10;;;11.80;99.90;;;;;;5022245;28;20204;-43
2022/09/16 07:19:02;;;;;;;8.50;1.10;;;12.00;99.90;;;;;;5047087;28;20199;-47
2022/09/16 07:21:30;;;;;;;4.27;1.30;;;12.00;99.90;;;;;;5030958;28;20219;-44
2022/09/16 07:23:59;;;;;;;8.80;1.30;;;12.10;99.90;;;;;;5042864;28;20190;-45
2022/09/16 07:26:28;;;;;;;6.70;1.00;;;12.10;99.90;;;;;;5045276;28;20202;-44
2022/09/16 07:28:58;;;;;;;8.93;1.00;;;12.00;99.90;;;;;;5031462;28;20935;-43
2022/09/16 07:31:26;;;;;;;3.37;0.80;;;12.00;99.90;;;;;;5048057;28;20679;-44
2022/09/16 07:33:55;;;;;;;3.30;1.10;;;12.10;99.90;;;;;;5047735;28;20297;-43
2022/09/16 07:36:24;;;;;;;3.27;1.20;;;12.00;99.90;;;;;;5043653;28;20211;-43
2022/09/16 07:38:52;;;;;;;4.90;1.07;;;12.20;99.90;;;;;;5038712;28;20191;-47
2022/09/16 07:41:21;;;;;;;3.40;1.63;;;12.20;99.90;;;;;;5058073;28;20199;-43
2022/09/16 07:43:49;;;;;;;4.33;1.30;;;12.30;99.90;;;;;;5036849;28;20195;-43
2022/09/16 07:46:19;;;;;;;2.93;1.20;;;12.30;99.90;;;;;;5061008;28;20252;-43
2022/09/16 07:48:48;;;;;;;4.83;1.00;;;12.40;99.90;;;;;;5046851;28;20202;-48
2022/09/16 07:51:17;;;;;;;4.83;1.00;;;12.40;99.90;;;;;;5044458;28;20285;-44
2022/09/16 07:53:45;;;;;;;7.50;1.23;;;;;;;;;;5042136;28;20215;-43
2022/09/16 07:56:17;;;;;;;4.20;1.10;;;12.70;99.90;;;;;;5063822;28;20194;-43
2022/09/16 07:58:44;;;;;;;7.73;2.13;;;12.70;99.90;;;;;;5035672;28;20191;-43
2022/09/16 08:01:13;;;;;;;3.00;1.00;;;12.70;99.90;;;;;;5050932;28;20282;-43
2022/09/16 08:03:41;;;;;;;5.97;1.30;;;12.80;99.90;;;;;;5042923;28;20659;-44
2022/09/16 08:06:11;;;;;;;5.70;1.13;;;12.90;99.90;;;;;;5045196;28;20219;-43
2022/09/16 08:08:38;;;;;;;3.40;1.00;;;12.90;99.90;;;;;;5028338;28;20250;-45
2022/09/16 08:11:06;;;;;;;2.90;0.80;;;12.90;99.90;;;;;;5044942;28;20274;-43
2022/09/16 08:13:35;;;;;;;4.47;0.90;;;12.90;99.90;;;;;;5039387;28;20212;-44
2022/09/16 08:16:06;;;;;;;5.03;1.00;;;13.00;99.90;;;;;;5062377;28;20713;-44
2022/09/16 08:18:33;;;;;;;6.23;0.80;;;13.10;99.90;;;;;;5059918;28;20274;-45
2022/09/16 08:21:06;;;;;;;4.70;1.00;;;;;;;;;;5051165;28;20282;-45
2022/09/16 08:23:34;;;;;;;6.73;0.80;;;13.40;99.90;;;;;;5028928;28;20239;-44
2022/09/16 08:26:01;;;;;;;1.97;0.80;;;13.50;99.90;;;;;;5043202;28;20218;-43
2022/09/16 08:28:29;;;;;;;3.07;1.50;;;13.60;99.90;;;;;;5043787;28;20202;-43
2022/09/16 08:30:58;;;;;;;4.63;1.37;;;13.60;99.90;;;;;;5037139;28;20192;-42
2022/09/16 08:33:25;;;;;;;6.40;1.20;;;13.50;99.90;;;;;;5042062;28;20215;-44
2022/09/16 08:35:59;;;;;;;4.37;1.37;;;13.30;99.90;;;;;;5056196;28;20298;-43
2022/09/16 08:38:26;;;;;;;7.60;1.10;;;13.20;99.90;;;;;;5033654;28;20235;-44
2022/09/16 08:40:58;;;;;;;4.83;1.20;;;13.10;99.90;;;;;;5041497;28;20274;-48
2022/09/16 08:43:35;;;;;;;4.77;0.97;;;13.00;99.90;;;;;;5042713;28;20199;-44
2022/09/16 08:46:10;;;;;;;6.93;1.30;;;13.00;99.90;;;;;;5043435;28;20809;-47
2022/09/16 08:48:47;;;;;;;3.97;0.80;;;12.90;99.90;;;;;;5060615;28;20655;-43
2022/09/16 08:51:19;;;;;;;7.70;1.73;;;13.00;99.90;;;;;;5056903;28;20210;-42
2022/09/16 08:53:52;;;;;;;4.73;0.93;;;12.80;99.90;;;;;;5026508;28;20218;-44
2022/09/16 08:56:22;;;;;;;6.13;0.90;;;12.80;99.90;;;;;;5045082;28;20203;-42
2022/09/16 08:58:52;;;;;;;2.57;0.90;;;12.80;99.90;;;;;;5049793;28;20191;-43
2022/09/16 09:01:27;;;;;;;8.17;1.10;;;12.70;99.90;;;;;;5045843;28;20683;-43
2022/09/16 09:03:53;;;;;;;6.30;1.27;;;12.70;99.90;;;;;;5035424;28;21017;-41
2022/09/16 09:06:38;;;;;;;5.90;1.17;;;12.80;99.90;;;;;;5042129;28;20211;-42
2022/09/16 09:09:12;;;;;;;7.90;0.90;;;12.90;99.90;;;;;;5033489;28;20684;-42
2022/09/16 09:11:46;;;;;;;6.13;1.30;;;13.00;99.90;;;;;;5037626;28;20195;-43
2022/09/16 09:14:28;;;;;;;4.50;1.33;;;13.20;99.90;;;;;;5043415;28;20687;-42
2022/09/16 09:17:04;;;;;;;4.63;1.57;;;13.40;99.90;;;;;;5039313;28;20206;-45
2022/09/16 09:19:48;;;;;;;6.40;1.27;;;13.50;99.90;;;;;;5041017;28;20282;-44
2022/09/16 09:22:26;;;;;;;5.43;1.20;;;13.60;99.90;;;;;;5038600;28;20214;-44
2022/09/16 09:25:08;;;;;;;4.63;1.23;;;13.60;99.90;;;;;;5025846;28;20222;-45
2022/09/16 09:27:42;;;;;;;5.10;1.40;;;13.60;99.90;;;;;;5043189;28;20191;-46
2022/09/16 09:30:16;;;;;;;5.63;1.30;;;13.60;99.90;;;;;;5041938;28;20202;-46
2022/09/16 09:32:56;;;;;;;2.00;1.00;;;13.70;99.90;;;;;;5042392;28;20194;-47
2022/09/16 09:35:36;;;;;;;3.93;1.07;;;13.90;99.90;;;;;;5039829;28;20218;-44
2022/09/16 09:38:26;;;;;;;5.83;1.13;;;14.00;99.90;;;;;;5037513;28;20195;-44
2022/09/16 09:40:57;;;;;;;5.67;1.10;;;14.20;99.90;;;;;;5042679;28;20222;-42
2022/09/16 09:43:31;;;;;;;5.83;1.10;;;14.30;99.90;;;;;;5038338;28;20207;-45
2022/09/16 09:46:00;;;;;;;3.77;1.17;;;;;;;;;;5037359;28;20226;-45
2022/09/16 09:48:33;;;;;;;6.13;1.30;;;14.60;99.90;;;;;;5029483;28;20218;-48
2022/09/16 09:51:05;;;;;;;2.73;1.00;;;14.60;99.90;;;;;;5049277;28;20237;-42
2022/09/16 09:53:35;;;;;;;2.50;0.80;;;14.60;99.90;;;;;;5022211;28;20211;-43
2022/09/16 09:56:14;;;;;;;3.70;1.00;;;14.60;99.90;;;;;;5042990;28;20945;-46
2022/09/16 09:58:48;;;;;;;4.40;1.10;;;14.60;99.90;;;;;;5039777;28;20207;-43
2022/09/16 10:01:16;;;;;;;3.13;0.90;;;14.70;99.90;;;;;;5047133;28;20560;-48
2022/09/16 10:03:44;;;;;;;5.13;1.20;;;14.70;99.90;;;;;;5040731;28;20269;-46
2022/09/16 10:06:11;;;;;;;4.53;1.20;;;14.80;99.90;;;;;;5058444;28;20252;-47
2022/09/16 10:08:44;;;;;;;5.80;1.00;;;14.80;99.90;;;;;;5052408;28;20191;-46
2022/09/16 10:11:17;;;;;;;6.23;1.47;;;15.00;99.90;;;;;;5045369;28;20702;-43
2022/09/16 10:13:49;;;;;;;4.40;1.00;;;15.00;99.90;;;;;;5052263;28;20226;-47
2022/09/16 10:16:20;;;;;;;1.97;0.73;;;15.00;99.90;;;;;;5045819;28;20274;-46
2022/09/16 10:18:57;;;;;;;5.60;1.17;;;14.80;99.90;;;;;;5044346;28;20233;-44
2022/09/16 10:21:25;;;;;;;4.30;1.20;;;14.70;99.90;;;;;;5046527;28;20260;-44
2022/09/16 10:23:57;;;;;;;4.20;1.33;;;14.70;99.90;;;;;;5048593;28;20191;-46
2022/09/16 10:26:25;;;;;;;4.17;1.20;;;14.70;99.90;;;;;;5033173;28;20230;-44
2022/09/16 10:28:55;;;;;;;9.33;1.30;;;14.70;99.90;;;;;;5049569;28;20203;-47
2022/09/16 10:31:23;;;;;;;5.00;1.33;;;14.70;99.90;;;;;;5039362;28;20200;-46
2022/09/16 10:33:50;;;;;;;3.87;1.30;;;14.80;99.90;;;;;;5039850;28;20577;-47
2022/09/16 10:36:20;;;;;;;5.47;1.47;;;15.00;99.90;;;;;;5045064;28;20204;-46
2022/09/16 10:38:51;;;;;;;4.17;1.13;;;15.20;99.90;;;;;;5056801;28;20198;-47
2022/09/16 10:41:21;;;;;;;7.87;1.53;;;;;;;;;;5030886;28;20241;-47
2022/09/16 10:43:50;;;;;;;4.67;1.50;;;;;;;;;;5046983;28;20559;-48
2022/09/16 10:46:18;;;;;;;5.17;1.17;;;;;;;;;;5046046;28;20668;-46
2022/09/16 10:48:46;;;;;;;5.97;1.10;;;;;;;;;;5056957;28;20323;-46
2022/09/16 10:51:22;;;;;;;5.03;1.20;;;;;;;;;;5057120;28;20266;-44
2022/09/16 10:53:53;;;;;;;7.23;1.40;;;15.90;99.90;;;;;;5041703;28;20286;-46
2022/09/16 10:56:22;;;;;;;7.13;1.30;;;15.90;99.90;;;;;;5032210;28;20211;-48
2022/09/16 10:58:49;;;;;;;3.53;0.93;;;16.00;99.90;;;;;;5044913;28;20203;-47
2022/09/16 11:01:32;;;;;;;6.47;1.00;;;16.10;99.90;;;;;;5044515;28;20277;-43
2022/09/16 11:04:31;;;;;;;2.27;1.00;;;16.10;99.90;;;;;;5043096;28;20199;-43
2022/09/16 11:07:10;;;;;;;6.40;1.50;;;16.00;99.90;;;;;;5045615;28;20210;-46
2022/09/16 11:09:48;;;;;;;4.20;0.77;;;16.10;99.90;;;;;;5047985;28;20201;-44
2022/09/16 11:12:39;;;;;;;2.47;1.07;;;16.00;99.90;;;;;;5026836;28;20687;-44
2022/09/16 11:15:18;;;;;;;8.07;0.90;;;15.80;99.90;;;;;;5030639;28;20235;-46
2022/09/16 11:18:00;;;;;;;7.27;1.13;;;15.60;99.90;;;;;;5042810;28;20629;-46
2022/09/16 11:20:51;;;;;;;8.13;1.60;;;15.50;99.90;;;;;;5040536;28;20197;-44
2022/09/16 11:23:39;;;;;;;6.60;1.27;;;15.40;99.90;;;;;;5032398;28;20218;-42
2022/09/16 11:26:15;;;;;;;3.27;1.10;;;15.30;99.90;;;;;;5050102;28;20215;-42
2022/09/16 11:28:57;;;;;;;3.40;1.00;;;15.10;99.90;;;;;;5043090;28;20871;-43
2022/09/16 11:31:35;;;;;;;3.30;1.00;;;14.60;99.90;;;;;;5041777;28;20373;-42
2022/09/16 11:34:10;;;;;;;5.50;1.47;;;14.30;99.90;;;;;;5047461;28;20573;-42
2022/09/16 11:36:45;;;;;;;7.93;1.07;;;14.00;99.90;;;;;;5054823;28;20204;-44
2022/09/16 11:39:24;;;;;;;5.07;1.23;;;13.80;99.90;;;;;;5045913;28;20198;-45
2022/09/16 11:42:05;;;;;;;4.27;1.10;;;13.70;99.90;;;;;;5023886;28;20198;-42
2022/09/16 11:44:42;;;;;;;7.40;1.47;;;13.70;99.90;;;;;;5046968;28;20206;-42
2022/09/16 11:47:21;;;;;;;6.70;1.10;;;13.70;99.90;;;;;;5046030;28;20536;-46
2022/09/16 11:50:15;;;;;;;5.70;1.40;;;13.70;99.90;;;;;;5045700;28;20198;-46
2022/09/16 11:53:03;;;;;;;2.83;1.30;;;13.80;99.90;;;;;;5044860;28;20194;-49
2022/09/16 11:55:45;;;;;;;6.10;1.10;;;13.90;99.90;;;;;;5034958;28;20239;-45
2022/09/16 11:58:27;;;;;;;5.03;1.03;;;14.10;99.90;;;;;;5038043;28;20218;-42
2022/09/16 12:00:58;;;;;;;6.50;1.73;;;14.20;99.90;;;;;;5040675;28;20282;-42
2022/09/16 12:03:30;;;;;;;4.70;0.97;;;14.40;99.90;;;;;;5047178;28;20278;-42
2022/09/16 12:06:04;;;;;;;8.47;1.60;;;14.50;99.90;;;;;;5045593;28;20229;-45
2022/09/16 12:08:44;;;;;;;6.33;1.27;;;14.60;99.90;;;;;;5048815;28;20219;-42
2022/09/16 12:11:22;;;;;;;4.27;1.10;;;14.70;99.90;;;;;;5034283;28;20211;-43
2022/09/16 12:13:54;;;;;;;7.37;1.40;;;14.70;99.90;;;;;;5039363;28;20207;-42
2022/09/16 12:16:27;;;;;;;4.30;0.93;;;14.70;99.90;;;;;;5043754;28;20586;-44
2022/09/16 12:18:58;;;;;;;5.97;0.77;;;14.50;99.90;;;;;;5045016;28;20226;-45
2022/09/16 12:21:28;;;;;;;2.93;0.70;;;14.40;99.90;;;;;;5044766;28;20218;-43
2022/09/16 12:23:59;;;;;;;3.13;0.70;;;14.20;99.90;;;;;;5041554;28;21004;-47
2022/09/16 12:26:32;;;;;;;3.53;1.00;;;13.90;99.90;;;;;;5051001;28;20198;-43
2022/09/16 12:29:04;;;;;;;4.67;0.70;;;13.70;99.90;;;;;;5032771;28;20207;-47
2022/09/16 12:31:35;;;;;;;4.50;0.83;;;13.70;99.90;;;;;;5049863;28;21014;-43
2022/09/16 12:34:05;;;;;;;5.07;1.10;;;13.60;99.90;;;;;;5056390;28;20234;-44
2022/09/16 12:36:35;;;;;;;5.67;1.00;;;13.70;99.90;;;;;;5040312;28;20195;-43
2022/09/16 12:39:02;;;;;;;4.00;1.27;;;13.80;99.90;;;;;;5052710;28;20699;-44
2022/09/16 12:41:47;;;;;;;5.60;1.10;;;13.80;99.90;;;;;;5052221;28;20198;-46
2022/09/16 12:44:37;;;;;;;4.03;0.97;;;13.90;99.90;;;;;;5028563;28;20226;-43
2022/09/16 12:47:39;;;;;;;5.33;0.90;;;14.10;99.90;;;;;;5047933;28;20206;-45
2022/09/16 12:50:38;;;;;;;3.93;1.00;;;14.30;99.90;;;;;;5046828;28;20198;-45
2022/09/16 12:53:31;;;;;;;5.00;0.93;;;14.50;99.90;;;;;;5041811;28;20548;-45
2022/09/16 12:56:06;;;;;;;4.40;1.07;;;14.50;99.90;;;;;;5039830;28;20233;-47
2022/09/16 12:59:05;;;;;;;3.13;0.80;;;14.40;99.90;;;;;;5029169;28;20207;-46
2022/09/16 13:01:37;;;;;;;2.83;0.40;;;14.20;99.90;;;;;;5040456;28;20202;-45
2022/09/16 13:04:12;;;;;;;3.80;1.00;;;13.90;99.90;;;;;;5050089;28;20192;-48
2022/09/16 13:06:47;;;;;;;3.77;0.90;;;13.70;99.90;;;;;;5041218;28;20254;-43
2022/09/16 13:09:21;;;;;;;6.40;1.67;;;13.60;99.90;;;;;;5044703;28;20660;-48
2022/09/16 13:11:53;;;;;;;5.87;1.10;;;13.60;99.90;;;;;;5048174;28;20202;-46
2022/09/16 13:14:27;;;;;;;3.33;0.93;;;13.60;99.90;;;;;;5034465;28;20230;-45
2022/09/16 13:16:57;;;;;;;4.93;1.20;;;13.70;99.90;;;;;;5053952;28;20201;-43
2022/09/16 13:19:45;;;;;;;2.93;1.03;;;13.80;99.90;;;;;;5044007;28;20280;-45
2022/09/16 13:22:20;;;;;;;5.40;0.87;;;13.80;99.90;;;;;;5047532;28;20599;-45
2022/09/16 13:24:53;;;;;;;2.70;0.60;;;13.70;99.90;;;;;;5046700;28;20226;-43
2022/09/16 13:27:27;;;;;;;7.17;1.57;;;13.70;99.90;;;;;;5049623;28;20555;-44
2022/09/16 13:30:13;;;;;;;2.87;0.70;;;13.70;99.90;;;;;;5033551;28;20214;-44